createdAt,value
2022-11-06T00:00:08.800Z,84.89
2022-11-06T00:01:08.830Z,84.89
2022-11-06T00:02:08.935Z,84.80
2022-11-06T00:03:08.931Z,85.08
2022-11-06T00:04:08.919Z,85.56
2022-11-06T00:05:08.951Z,85.47
2022-11-06T00:06:08.981Z,85.56
2022-11-06T00:07:09.017Z,85.75
2022-11-06T00:08:09.195Z,85.56
2022-11-06T00:09:09.075Z,85.75
2022-11-06T00:10:09.102Z,85.66
2022-11-06T00:11:09.134Z,86.13
2022-11-06T00:12:09.178Z,85.94
2022-11-06T00:13:09.196Z,86.04
2022-11-06T00:14:09.226Z,86.13
2022-11-06T00:15:09.257Z,86.22
2022-11-06T00:16:09.292Z,86.51
2022-11-06T00:17:09.319Z,85.85
2022-11-06T00:18:09.440Z,85.56
2022-11-06T00:19:09.383Z,85.56
2022-11-06T00:20:09.409Z,85.66
2022-11-06T00:21:09.441Z,85.56
2022-11-06T00:22:09.470Z,85.56
2022-11-06T00:23:09.501Z,85.47
2022-11-06T00:24:16.737Z,85.66
2022-11-06T00:26:13.591Z,85.66
2022-11-06T00:27:13.582Z,85.37
2022-11-06T00:29:06.587Z,84.99
2022-11-06T00:30:06.611Z,85.18
2022-11-06T00:32:10.670Z,85.18
2022-11-06T00:33:10.701Z,85.08
2022-11-06T00:35:14.767Z,85.18
2022-11-06T00:36:14.765Z,85.37
2022-11-06T00:38:18.790Z,85.47
2022-11-06T00:39:18.815Z,85.75
2022-11-06T00:41:22.875Z,85.66
2022-11-06T00:42:22.871Z,85.66
2022-11-06T00:44:15.819Z,86.22
2022-11-06T00:45:15.844Z,86.22
2022-11-06T00:47:08.842Z,85.47
2022-11-06T00:48:08.865Z,85.56
2022-11-06T00:50:13.067Z,85.75
2022-11-06T00:51:12.942Z,85.66
2022-11-06T00:53:28.055Z,85.47
2022-11-06T00:54:28.081Z,85.56
2022-11-06T00:56:32.147Z,85.75
2022-11-06T00:57:32.138Z,85.75
2022-11-06T00:59:36.168Z,86.22
2022-11-06T01:00:36.196Z,86.09
2022-11-06T01:02:40.315Z,86.47
2022-11-06T01:03:40.249Z,86.28
2022-11-06T01:05:44.362Z,86.66
2022-11-06T01:06:44.351Z,86.28
2022-11-06T01:08:37.314Z,86.18
2022-11-06T01:09:37.342Z,86.28
2022-11-06T01:12:12.393Z,86.76
2022-11-06T01:12:52.476Z,86.38
2022-11-06T01:14:45.433Z,86.76
2022-11-06T01:15:45.452Z,85.90
2022-11-06T01:17:49.527Z,86.18
2022-11-06T01:18:49.553Z,86.09
2022-11-06T01:20:42.511Z,86.47
2022-11-06T01:21:42.538Z,86.57
2022-11-06T01:23:57.645Z,86.85
2022-11-06T01:24:57.769Z,86.94
2022-11-06T01:28:01.727Z,86.47
2022-11-06T01:30:06.344Z,86.66
2022-11-06T01:31:05.976Z,86.66
2022-11-06T01:32:58.969Z,86.66
2022-11-06T01:33:58.994Z,86.66
2022-11-06T01:35:51.951Z,86.76
2022-11-06T01:36:51.978Z,85.99
2022-11-06T01:38:56.059Z,86.66
2022-11-06T01:39:56.033Z,86.85
2022-11-06T01:42:00.069Z,86.76
2022-11-06T01:43:00.090Z,86.94
2022-11-06T01:44:53.110Z,86.76
2022-11-06T01:45:53.071Z,86.76
2022-11-06T01:47:57.131Z,86.66
2022-11-06T01:48:57.149Z,86.76
2022-11-06T01:51:01.152Z,86.57
2022-11-06T01:52:01.183Z,86.47
2022-11-06T01:53:54.226Z,86.66
2022-11-06T01:54:54.253Z,86.57
2022-11-06T01:56:47.245Z,86.66
2022-11-06T01:57:47.273Z,86.47
2022-11-06T01:59:51.321Z,86.28
2022-11-06T02:00:51.349Z,86.66
2022-11-06T02:02:55.546Z,86.76
2022-11-06T02:03:55.405Z,86.66
2022-11-06T02:05:59.442Z,86.38
2022-11-06T02:06:59.469Z,86.47
2022-11-06T02:09:03.498Z,86.28
2022-11-06T02:10:03.525Z,86.57
2022-11-06T02:12:07.584Z,86.47
2022-11-06T02:13:07.577Z,86.47
2022-11-06T02:15:11.614Z,86.28
2022-11-06T02:16:11.641Z,86.18
2022-11-06T02:18:15.974Z,86.66
2022-11-06T02:19:15.697Z,86.57
2022-11-06T02:21:19.827Z,86.18
2022-11-06T02:22:19.815Z,86.76
2022-11-06T02:24:12.871Z,86.57
2022-11-06T02:25:12.797Z,86.18
2022-11-06T02:27:16.886Z,86.85
2022-11-06T02:28:16.855Z,86.85
2022-11-06T02:30:20.916Z,86.57
2022-11-06T02:31:20.923Z,86.57
2022-11-06T02:33:25.073Z,86.47
2022-11-06T02:34:25.105Z,86.38
2022-11-06T02:36:18.100Z,86.66
2022-11-06T02:37:18.126Z,86.57
2022-11-06T02:39:22.246Z,86.66
2022-11-06T02:40:22.185Z,86.66
2022-11-06T02:42:26.221Z,86.38
2022-11-06T02:43:26.235Z,86.76
2022-11-06T02:45:30.268Z,86.76
2022-11-06T02:46:30.293Z,86.66
2022-11-06T02:48:34.320Z,86.47
2022-11-06T02:49:34.346Z,86.38
2022-11-06T02:51:38.376Z,86.66
2022-11-06T02:52:38.403Z,86.47
2022-11-06T02:54:31.351Z,87.42
2022-11-06T02:55:31.374Z,86.76
2022-11-06T02:57:35.403Z,86.94
2022-11-06T02:58:38.781Z,87.04
2022-11-06T03:00:39.557Z,87.13
2022-11-06T03:01:39.598Z,87.32
2022-11-06T03:02:39.772Z,87.04
2022-11-06T03:03:39.609Z,86.94
2022-11-06T03:04:39.638Z,87.32
2022-11-06T03:05:39.666Z,86.85
2022-11-06T03:06:39.697Z,87.13
2022-11-06T03:07:39.726Z,87.04
2022-11-06T03:08:39.757Z,86.94
2022-11-06T03:09:39.788Z,87.13
2022-11-06T03:10:39.818Z,87.23
2022-11-06T03:11:39.847Z,86.94
2022-11-06T03:12:39.875Z,87.42
2022-11-06T03:13:39.907Z,87.13
2022-11-06T03:14:39.937Z,87.32
2022-11-06T03:15:39.965Z,87.57
2022-11-06T03:16:39.997Z,87.57
2022-11-06T03:17:40.025Z,87.66
2022-11-06T03:18:40.056Z,88.13
2022-11-06T03:19:40.086Z,88.13
2022-11-06T03:20:40.115Z,88.04
2022-11-06T03:21:40.147Z,88.33
2022-11-06T03:22:40.212Z,88.13
2022-11-06T03:23:40.209Z,88.23
2022-11-06T03:24:40.233Z,88.04
2022-11-06T03:25:40.268Z,88.13
2022-11-06T03:26:40.295Z,88.52
2022-11-06T03:27:40.326Z,88.23
2022-11-06T03:28:40.356Z,88.52
2022-11-06T03:29:40.385Z,88.23
2022-11-06T03:30:40.413Z,87.95
2022-11-06T03:31:40.445Z,87.76
2022-11-06T03:32:40.474Z,87.85
2022-11-06T03:33:40.504Z,88.13
2022-11-06T03:34:40.537Z,88.13
2022-11-06T03:35:40.570Z,88.13
2022-11-06T03:36:40.594Z,88.13
2022-11-06T03:37:40.625Z,88.04
2022-11-06T03:38:42.394Z,87.95
2022-11-06T03:39:40.684Z,88.04
2022-11-06T03:40:40.713Z,88.23
2022-11-06T03:41:40.748Z,88.13
2022-11-06T03:42:40.772Z,88.23
2022-11-06T03:43:40.806Z,88.04
2022-11-06T03:44:40.835Z,88.42
2022-11-06T03:45:40.862Z,88.33
2022-11-06T03:46:40.894Z,88.04
2022-11-06T03:47:40.922Z,88.04
2022-11-06T03:48:40.956Z,88.42
2022-11-06T03:49:40.984Z,88.23
2022-11-06T03:50:41.010Z,89.00
2022-11-06T03:51:41.041Z,88.71
2022-11-06T03:52:43.206Z,88.71
2022-11-06T03:53:41.103Z,88.80
2022-11-06T03:54:41.130Z,89.37
2022-11-06T03:55:41.160Z,89.28
2022-11-06T03:56:41.189Z,89.18
2022-11-06T03:57:41.225Z,89.09
2022-11-06T03:58:41.310Z,89.18
2022-11-06T03:59:41.279Z,89.66
2022-11-06T04:00:41.319Z,89.28
2022-11-06T04:01:41.450Z,89.47
2022-11-06T04:02:41.477Z,89.66
2022-11-06T04:03:41.398Z,89.66
2022-11-06T04:04:41.431Z,89.56
2022-11-06T04:05:41.459Z,89.18
2022-11-06T04:06:41.487Z,89.56
2022-11-06T04:07:41.521Z,89.47
2022-11-06T04:08:41.545Z,89.18
2022-11-06T04:09:41.580Z,89.18
2022-11-06T04:10:41.610Z,89.28
2022-11-06T04:11:41.641Z,89.47
2022-11-06T04:12:41.667Z,89.56
2022-11-06T04:13:41.697Z,89.85
2022-11-06T04:14:41.725Z,90.23
2022-11-06T04:15:41.755Z,89.47
2022-11-06T04:16:41.791Z,89.85
2022-11-06T04:17:41.814Z,90.28
2022-11-06T04:18:41.848Z,90.04
2022-11-06T04:19:41.922Z,89.85
2022-11-06T04:20:41.902Z,90.04
2022-11-06T04:21:41.934Z,89.47
2022-11-06T04:22:41.963Z,89.56
2022-11-06T04:23:41.991Z,90.14
2022-11-06T04:24:42.023Z,89.85
2022-11-06T04:25:42.051Z,89.75
2022-11-06T04:26:42.079Z,90.33
2022-11-06T04:27:42.109Z,90.04
2022-11-06T04:28:42.146Z,89.94
2022-11-06T04:29:42.181Z,90.14
2022-11-06T04:30:42.197Z,90.28
2022-11-06T04:31:42.229Z,90.00
2022-11-06T04:32:42.257Z,90.33
2022-11-06T04:33:42.290Z,89.66
2022-11-06T04:34:42.316Z,89.56
2022-11-06T04:35:42.346Z,90.33
2022-11-06T04:36:42.377Z,90.00
2022-11-06T04:37:42.407Z,90.04
2022-11-06T04:38:42.433Z,90.19
2022-11-06T04:39:42.464Z,90.23
2022-11-06T04:40:42.494Z,90.00
2022-11-06T04:41:42.526Z,90.04
2022-11-06T04:42:42.551Z,89.66
2022-11-06T04:43:42.589Z,90.04
2022-11-06T04:44:42.615Z,89.66
2022-11-06T04:45:42.646Z,90.04
2022-11-06T04:46:42.698Z,89.85
2022-11-06T04:47:42.699Z,89.85
2022-11-06T04:48:42.732Z,90.04
2022-11-06T04:49:42.760Z,89.28
2022-11-06T04:50:42.789Z,89.90
2022-11-06T04:51:42.819Z,89.94
2022-11-06T04:52:42.847Z,90.14
2022-11-06T04:53:42.877Z,90.09
2022-11-06T04:54:42.909Z,90.85
2022-11-06T04:55:42.938Z,90.47
2022-11-06T04:56:45.999Z,90.28
2022-11-06T04:57:42.998Z,90.19
2022-11-06T04:58:43.057Z,90.19
2022-11-06T04:59:43.056Z,90.28
2022-11-06T05:00:43.132Z,90.23
2022-11-06T05:01:43.377Z,90.04
2022-11-06T05:02:43.143Z,90.04
2022-11-06T05:03:43.178Z,89.85
2022-11-06T05:04:43.202Z,90.00
2022-11-06T05:05:43.233Z,89.18
2022-11-06T05:06:43.265Z,89.28
2022-11-06T05:07:43.290Z,89.56
2022-11-06T05:08:43.328Z,89.37
2022-11-06T05:09:43.350Z,89.56
2022-11-06T05:10:43.382Z,89.23
2022-11-06T05:11:43.413Z,89.28
2022-11-06T05:12:43.439Z,89.42
2022-11-06T05:13:43.469Z,89.52
2022-11-06T05:14:43.549Z,89.42
2022-11-06T05:15:43.526Z,89.85
2022-11-06T05:16:43.559Z,90.00
2022-11-06T05:17:43.589Z,90.00
2022-11-06T05:18:43.619Z,89.33
2022-11-06T05:19:43.644Z,90.00
2022-11-06T05:20:43.673Z,89.61
2022-11-06T05:21:43.711Z,89.23
2022-11-06T05:22:43.733Z,89.56
2022-11-06T05:23:43.764Z,89.47
2022-11-06T05:24:43.793Z,89.09
2022-11-06T05:25:43.823Z,89.23
2022-11-06T05:26:43.851Z,89.56
2022-11-06T05:27:43.881Z,89.42
2022-11-06T05:28:43.911Z,89.23
2022-11-06T05:29:43.963Z,90.00
2022-11-06T05:30:43.969Z,90.00
2022-11-06T05:31:44.000Z,89.61
2022-11-06T05:32:44.027Z,89.42
2022-11-06T05:33:44.162Z,89.80
2022-11-06T05:34:44.087Z,89.42
2022-11-06T05:35:44.116Z,89.80
2022-11-06T05:36:44.151Z,89.42
2022-11-06T05:37:44.178Z,89.61
2022-11-06T05:38:44.206Z,89.61
2022-11-06T05:39:44.238Z,89.61
2022-11-06T05:40:44.263Z,89.23
2022-11-06T05:41:44.295Z,90.00
2022-11-06T05:42:44.323Z,90.19
2022-11-06T05:43:44.352Z,90.09
2022-11-06T05:44:44.384Z,90.19
2022-11-06T05:45:44.413Z,90.09
2022-11-06T05:46:49.260Z,90.94
2022-11-06T05:47:44.474Z,90.85
2022-11-06T05:48:44.504Z,90.56
2022-11-06T05:49:44.534Z,91.04
2022-11-06T05:50:44.568Z,90.85
2022-11-06T05:51:44.594Z,91.04
2022-11-06T05:52:44.617Z,91.23
2022-11-06T05:53:44.649Z,90.94
2022-11-06T05:54:44.676Z,90.94
2022-11-06T05:55:44.706Z,91.04
2022-11-06T05:56:44.736Z,91.23
2022-11-06T05:57:44.766Z,90.85
2022-11-06T05:58:44.795Z,90.85
2022-11-06T05:59:44.831Z,91.13
2022-11-06T06:00:44.852Z,90.56
2022-11-06T06:01:44.936Z,90.56
2022-11-06T06:02:45.064Z,90.66
2022-11-06T06:03:44.943Z,90.56
2022-11-06T06:04:44.970Z,90.19
2022-11-06T06:05:45.003Z,90.47
2022-11-06T06:06:45.030Z,90.28
2022-11-06T06:07:45.059Z,90.19
2022-11-06T06:08:45.087Z,90.37
2022-11-06T06:09:45.120Z,90.75
2022-11-06T06:10:45.147Z,90.66
2022-11-06T06:11:45.176Z,90.47
2022-11-06T06:12:45.205Z,90.37
2022-11-06T06:13:45.237Z,90.75
2022-11-06T06:14:49.366Z,91.13
2022-11-06T06:15:45.294Z,90.66
2022-11-06T06:16:45.321Z,90.56
2022-11-06T06:17:45.355Z,90.56
2022-11-06T06:18:45.381Z,90.47
2022-11-06T06:19:45.412Z,90.28
2022-11-06T06:20:45.441Z,90.19
2022-11-06T06:21:45.471Z,90.09
2022-11-06T06:22:45.498Z,90.19
2022-11-06T06:23:45.528Z,90.00
2022-11-06T06:24:45.672Z,90.47
2022-11-06T06:25:45.592Z,90.37
2022-11-06T06:26:45.616Z,90.00
2022-11-06T06:27:45.645Z,90.19
2022-11-06T06:28:45.672Z,90.19
2022-11-06T06:29:45.705Z,90.09
2022-11-06T06:30:45.735Z,90.28
2022-11-06T06:31:45.762Z,90.28
2022-11-06T06:32:45.790Z,90.28
2022-11-06T06:33:45.823Z,89.90
2022-11-06T06:34:45.850Z,90.00
2022-11-06T06:35:45.879Z,90.75
2022-11-06T06:36:45.909Z,90.85
2022-11-06T06:37:45.940Z,90.75
2022-11-06T06:38:45.965Z,91.13
2022-11-06T06:39:45.997Z,90.85
2022-11-06T06:40:46.028Z,90.66
2022-11-06T06:41:46.054Z,90.56
2022-11-06T06:42:46.084Z,90.75
2022-11-06T06:43:46.114Z,90.66
2022-11-06T06:44:46.144Z,90.19
2022-11-06T06:45:46.179Z,90.66
2022-11-06T06:46:46.203Z,90.37
2022-11-06T06:47:46.230Z,90.19
2022-11-06T06:48:46.260Z,90.09
2022-11-06T06:49:46.288Z,90.85
2022-11-06T06:50:46.321Z,90.75
2022-11-06T06:51:46.348Z,90.66
2022-11-06T06:52:46.376Z,90.75
2022-11-06T06:53:46.422Z,90.85
2022-11-06T06:54:46.436Z,90.75
2022-11-06T06:55:46.464Z,90.47
2022-11-06T06:56:46.492Z,90.94
2022-11-06T06:57:46.535Z,91.23
2022-11-06T06:58:46.560Z,90.94
2022-11-06T06:59:46.587Z,90.66
2022-11-06T07:00:46.703Z,90.94
2022-11-06T07:01:46.764Z,90.66
2022-11-06T07:02:46.670Z,90.85
2022-11-06T07:03:46.701Z,90.85
2022-11-06T07:04:46.732Z,91.04
2022-11-06T07:05:46.765Z,90.75
2022-11-06T07:06:46.786Z,90.66
2022-11-06T07:07:46.815Z,91.13
2022-11-06T07:08:46.844Z,91.19
2022-11-06T07:09:46.973Z,91.42
2022-11-06T07:10:46.903Z,90.85
2022-11-06T07:11:46.936Z,90.75
2022-11-06T07:12:46.961Z,90.94
2022-11-06T07:13:46.993Z,90.94
2022-11-06T07:14:47.021Z,90.94
2022-11-06T07:15:47.049Z,90.75
2022-11-06T07:16:51.150Z,90.75
2022-11-06T07:17:47.107Z,91.04
2022-11-06T07:18:47.138Z,90.85
2022-11-06T07:19:47.168Z,90.75
2022-11-06T07:20:47.194Z,90.85
2022-11-06T07:21:47.229Z,91.04
2022-11-06T07:22:47.256Z,91.04
2022-11-06T07:23:47.283Z,91.13
2022-11-06T07:24:47.313Z,91.33
2022-11-06T07:25:47.342Z,91.33
2022-11-06T07:26:47.374Z,91.42
2022-11-06T07:27:47.402Z,91.71
2022-11-06T07:28:47.443Z,91.42
2022-11-06T07:29:47.461Z,91.71
2022-11-06T07:30:47.487Z,91.61
2022-11-06T07:31:47.519Z,91.80
2022-11-06T07:32:47.546Z,91.04
2022-11-06T07:33:47.574Z,91.42
2022-11-06T07:34:47.606Z,91.23
2022-11-06T07:35:47.632Z,91.33
2022-11-06T07:36:47.668Z,91.13
2022-11-06T07:37:47.691Z,91.42
2022-11-06T07:38:47.721Z,90.94
2022-11-06T07:39:47.748Z,91.33
2022-11-06T07:40:47.780Z,91.42
2022-11-06T07:41:47.815Z,91.42
2022-11-06T07:42:47.847Z,90.94
2022-11-06T07:43:47.867Z,91.42
2022-11-06T07:44:47.896Z,91.42
2022-11-06T07:45:47.926Z,91.42
2022-11-06T07:46:47.956Z,91.52
2022-11-06T07:47:47.983Z,91.04
2022-11-06T07:48:48.012Z,91.04
2022-11-06T07:49:50.881Z,91.33
2022-11-06T07:50:48.077Z,91.33
2022-11-06T07:51:48.100Z,91.13
2022-11-06T07:52:48.131Z,90.94
2022-11-06T07:53:48.157Z,91.42
2022-11-06T07:54:48.190Z,91.33
2022-11-06T07:55:48.216Z,91.33
2022-11-06T07:56:48.267Z,90.94
2022-11-06T07:57:48.282Z,90.75
2022-11-06T07:58:48.307Z,90.66
2022-11-06T07:59:48.334Z,91.04
2022-11-06T08:00:48.417Z,90.52
2022-11-06T08:01:48.569Z,90.47
2022-11-06T08:02:48.422Z,90.61
2022-11-06T08:03:48.456Z,90.52
2022-11-06T08:04:48.487Z,90.61
2022-11-06T08:05:48.509Z,90.23
2022-11-06T08:06:48.541Z,90.14
2022-11-06T08:07:48.569Z,90.33
2022-11-06T08:08:48.597Z,90.52
2022-11-06T08:09:48.627Z,90.61
2022-11-06T08:10:48.660Z,90.52
2022-11-06T08:11:48.685Z,90.89
2022-11-06T08:12:48.715Z,90.23
2022-11-06T08:13:48.744Z,90.14
2022-11-06T08:14:48.775Z,89.94
2022-11-06T08:15:48.805Z,90.61
2022-11-06T08:16:48.834Z,90.70
2022-11-06T08:17:48.860Z,90.33
2022-11-06T08:18:48.894Z,90.33
2022-11-06T08:19:48.929Z,90.04
2022-11-06T08:20:48.953Z,89.94
2022-11-06T08:21:48.980Z,89.85
2022-11-06T08:22:49.008Z,89.56
2022-11-06T08:23:49.047Z,89.85
2022-11-06T08:24:49.067Z,89.56
2022-11-06T08:25:49.096Z,89.66
2022-11-06T08:26:49.130Z,89.66
2022-11-06T08:27:49.154Z,89.94
2022-11-06T08:28:49.185Z,89.00
2022-11-06T08:29:49.216Z,89.37
2022-11-06T08:30:49.244Z,89.37
2022-11-06T08:31:49.272Z,89.09
2022-11-06T08:32:49.302Z,89.18
2022-11-06T08:33:49.332Z,89.51
2022-11-06T08:34:49.363Z,89.23
2022-11-06T08:35:49.389Z,88.66
2022-11-06T08:36:49.854Z,88.18
2022-11-06T08:37:49.450Z,88.56
2022-11-06T08:38:49.480Z,87.90
2022-11-06T08:39:49.508Z,88.75
2022-11-06T08:40:53.601Z,88.66
2022-11-06T08:41:49.569Z,88.28
2022-11-06T08:42:49.601Z,88.66
2022-11-06T08:43:49.630Z,88.66
2022-11-06T08:44:49.661Z,88.09
2022-11-06T08:45:49.689Z,88.46
2022-11-06T08:46:52.134Z,87.99
2022-11-06T08:47:49.748Z,88.18
2022-11-06T08:48:49.777Z,87.99
2022-11-06T08:49:49.807Z,88.28
2022-11-06T08:50:49.839Z,88.56
2022-11-06T08:51:49.864Z,88.09
2022-11-06T08:52:49.898Z,88.18
2022-11-06T08:53:49.970Z,87.37
2022-11-06T08:54:49.957Z,86.70
2022-11-06T08:55:49.986Z,86.51
2022-11-06T08:56:50.015Z,87.08
2022-11-06T08:57:50.043Z,86.80
2022-11-06T08:58:55.228Z,85.94
2022-11-06T08:59:50.104Z,86.42
2022-11-06T09:00:50.216Z,86.04
2022-11-06T09:01:50.383Z,85.75
2022-11-06T09:02:50.196Z,86.32
2022-11-06T09:03:50.227Z,86.04
2022-11-06T09:04:50.256Z,86.27
2022-11-06T09:05:50.284Z,85.70
2022-11-06T09:06:50.314Z,84.94
2022-11-06T09:07:50.346Z,84.56
2022-11-06T09:08:50.374Z,83.98
2022-11-06T09:09:50.405Z,84.17
2022-11-06T09:10:54.460Z,83.61
2022-11-06T09:11:50.463Z,83.51
2022-11-06T09:12:50.498Z,83.61
2022-11-06T09:13:50.525Z,83.41
2022-11-06T09:14:50.576Z,82.98
2022-11-06T09:15:50.585Z,82.69
2022-11-06T09:16:50.620Z,83.45
2022-11-06T09:17:50.650Z,82.69
2022-11-06T09:18:50.678Z,82.31
2022-11-06T09:19:50.707Z,82.50
2022-11-06T09:20:50.741Z,82.50
2022-11-06T09:21:54.687Z,82.41
2022-11-06T09:22:50.800Z,82.41
2022-11-06T09:23:50.831Z,82.21
2022-11-06T09:25:03.255Z,82.60
2022-11-06T09:25:50.893Z,82.26
2022-11-06T09:26:50.925Z,80.92
2022-11-06T09:27:55.678Z,80.73
2022-11-06T09:28:50.985Z,80.54
2022-11-06T09:29:51.017Z,80.83
2022-11-06T09:30:51.048Z,80.58
2022-11-06T09:31:51.078Z,80.16
2022-11-06T09:32:51.107Z,81.35
2022-11-06T09:33:51.143Z,79.06
2022-11-06T09:34:51.173Z,78.49
2022-11-06T09:35:51.202Z,77.72
2022-11-06T09:36:51.239Z,78.58
2022-11-06T09:37:51.270Z,78.10
2022-11-06T09:38:51.294Z,77.09
2022-11-06T09:39:51.325Z,77.23
2022-11-06T09:40:51.359Z,75.16
2022-11-06T09:41:51.385Z,70.84
2022-11-06T09:42:51.420Z,68.20
2022-11-06T09:44:04.783Z,67.05
2022-11-06T09:44:51.483Z,65.68
2022-11-06T09:45:54.888Z,63.89
2022-11-06T09:46:51.584Z,61.34
2022-11-06T09:47:51.576Z,60.96
2022-11-06T09:48:51.606Z,59.74
2022-11-06T09:49:51.657Z,58.78
2022-11-06T09:50:51.670Z,57.95
2022-11-06T09:51:51.699Z,58.14
2022-11-06T09:52:51.760Z,57.34
2022-11-06T09:53:51.794Z,58.20
2022-11-06T09:54:56.113Z,58.11
2022-11-06T09:55:51.830Z,58.20
2022-11-06T09:56:51.869Z,58.78
2022-11-06T09:57:51.916Z,57.75
2022-11-06T09:58:51.922Z,57.56
2022-11-06T09:59:51.952Z,57.37
2022-11-06T10:00:52.034Z,57.18
2022-11-06T10:01:52.105Z,56.98
2022-11-06T10:02:52.201Z,56.70
2022-11-06T10:03:52.079Z,56.98
2022-11-06T10:04:52.113Z,57.08
2022-11-06T10:05:52.144Z,57.06
2022-11-06T10:06:52.178Z,58.01
2022-11-06T10:07:52.205Z,57.06
2022-11-06T10:08:52.239Z,57.24
2022-11-06T10:09:52.270Z,57.53
2022-11-06T10:10:52.312Z,57.24
2022-11-06T10:11:52.343Z,57.34
2022-11-06T10:12:52.389Z,57.18
2022-11-06T10:13:52.407Z,56.41
2022-11-06T10:14:52.442Z,56.76
2022-11-06T10:15:52.473Z,56.96
2022-11-06T10:16:52.511Z,58.08
2022-11-06T10:17:52.639Z,58.78
2022-11-06T10:18:52.590Z,58.87
2022-11-06T10:19:52.613Z,58.39
2022-11-06T10:20:52.649Z,58.14
2022-11-06T10:21:52.688Z,57.11
2022-11-06T10:22:52.726Z,55.32
2022-11-06T10:23:52.761Z,53.13
2022-11-06T10:24:52.795Z,53.06
2022-11-06T10:25:52.832Z,52.80
2022-11-06T10:26:52.871Z,52.12
2022-11-06T10:27:52.914Z,50.97
2022-11-06T10:28:52.941Z,50.23
2022-11-06T10:29:52.979Z,49.94
2022-11-06T10:30:53.078Z,50.97
2022-11-06T10:31:53.052Z,52.03
2022-11-06T10:32:53.092Z,51.91
2022-11-06T10:33:53.126Z,52.08
2022-11-06T10:34:53.165Z,52.75
2022-11-06T10:35:53.204Z,53.61
2022-11-06T10:36:53.239Z,54.09
2022-11-06T10:37:53.278Z,54.00
2022-11-06T10:38:53.319Z,53.90
2022-11-06T10:39:53.351Z,52.77
2022-11-06T10:40:53.393Z,52.08
2022-11-06T10:41:53.434Z,52.26
2022-11-06T10:42:53.470Z,51.98
2022-11-06T10:43:53.518Z,51.31
2022-11-06T10:44:53.541Z,52.36
2022-11-06T10:45:53.581Z,51.23
2022-11-06T10:46:53.618Z,51.14
2022-11-06T10:47:53.656Z,51.14
2022-11-06T10:48:53.696Z,50.85
2022-11-06T10:49:53.732Z,50.10
2022-11-06T10:50:53.771Z,50.10
2022-11-06T10:51:53.806Z,49.65
2022-11-06T10:52:53.846Z,49.46
2022-11-06T10:53:53.887Z,49.00
2022-11-06T10:54:53.921Z,47.75
2022-11-06T10:55:53.960Z,46.91
2022-11-06T10:56:53.998Z,47.14
2022-11-06T10:57:54.037Z,45.34
2022-11-06T10:58:54.075Z,44.49
2022-11-06T10:59:54.111Z,44.32
2022-11-06T11:00:54.191Z,42.72
2022-11-06T11:01:54.371Z,42.16
2022-11-06T11:02:54.230Z,41.41
2022-11-06T11:03:54.283Z,39.09
2022-11-06T11:04:57.902Z,38.13
2022-11-06T11:05:54.342Z,38.45
2022-11-06T11:06:54.392Z,39.14
2022-11-06T11:07:54.418Z,37.13
2022-11-06T11:08:54.460Z,36.93
2022-11-06T11:09:54.503Z,36.74
2022-11-06T11:11:04.546Z,36.24
2022-11-06T11:11:54.572Z,37.40
2022-11-06T11:12:54.618Z,36.52
2022-11-06T11:13:54.649Z,38.06
2022-11-06T11:14:54.687Z,37.48
2022-11-06T11:15:54.723Z,37.46
2022-11-06T11:16:54.766Z,38.68
2022-11-06T11:17:54.801Z,39.82
2022-11-06T11:18:54.941Z,40.57
2022-11-06T11:19:54.878Z,40.55
2022-11-06T11:20:54.919Z,41.48
2022-11-06T11:21:54.956Z,43.67
2022-11-06T11:22:55.018Z,45.10
2022-11-06T11:23:55.036Z,45.27
2022-11-06T11:24:55.076Z,46.40
2022-11-06T11:25:55.115Z,47.36
2022-11-06T11:26:55.156Z,48.11
2022-11-06T11:27:55.196Z,47.99
2022-11-06T11:28:55.336Z,49.53
2022-11-06T11:29:55.276Z,50.18
2022-11-06T11:30:55.317Z,51.62
2022-11-06T11:31:55.357Z,52.10
2022-11-06T11:32:55.399Z,50.82
2022-11-06T11:33:55.440Z,52.17
2022-11-06T11:34:56.786Z,52.65
2022-11-06T11:35:55.522Z,52.17
2022-11-06T11:36:55.564Z,53.03
2022-11-06T11:37:55.608Z,52.72
2022-11-06T11:38:55.648Z,53.03
2022-11-06T11:39:55.691Z,52.34
2022-11-06T11:40:55.733Z,52.72
2022-11-06T11:41:56.033Z,52.81
2022-11-06T11:42:55.818Z,52.91
2022-11-06T11:43:55.861Z,53.68
2022-11-06T11:44:55.902Z,52.91
2022-11-06T11:45:55.947Z,53.20
2022-11-06T11:46:55.986Z,53.20
2022-11-06T11:47:56.031Z,53.70
2022-11-06T11:48:56.073Z,53.70
2022-11-06T11:49:56.138Z,53.52
2022-11-06T11:50:56.157Z,53.03
2022-11-06T11:51:56.198Z,53.03
2022-11-06T11:52:56.241Z,52.34
2022-11-06T11:53:56.286Z,53.13
2022-11-06T11:54:56.326Z,52.72
2022-11-06T11:55:56.367Z,52.65
2022-11-06T11:57:05.829Z,52.36
2022-11-06T11:57:56.452Z,51.98
2022-11-06T11:58:56.491Z,52.55
2022-11-06T11:59:56.540Z,52.08
2022-11-06T12:00:56.572Z,51.72
2022-11-06T12:01:56.731Z,51.84
2022-11-06T12:02:56.732Z,50.32
2022-11-06T12:03:56.698Z,49.00
2022-11-06T12:04:56.735Z,47.36
2022-11-06T12:05:56.775Z,47.99
2022-11-06T12:06:56.814Z,46.83
2022-11-06T12:07:56.856Z,45.60
2022-11-06T12:08:56.901Z,46.59
2022-11-06T12:09:56.935Z,44.54
2022-11-06T12:10:56.974Z,44.35
2022-11-06T12:11:57.010Z,45.53
2022-11-06T12:12:57.051Z,45.34
2022-11-06T12:13:57.103Z,45.92
2022-11-06T12:14:57.129Z,45.34
2022-11-06T12:15:57.171Z,45.36
2022-11-06T12:16:57.209Z,45.07
2022-11-06T12:17:57.247Z,43.93
2022-11-06T12:18:59.069Z,42.89
2022-11-06T12:19:57.325Z,43.37
2022-11-06T12:20:57.413Z,41.44
2022-11-06T12:21:57.402Z,40.69
2022-11-06T12:22:57.438Z,40.81
2022-11-06T12:24:06.170Z,40.78
2022-11-06T12:26:01.627Z,39.53
2022-11-06T12:27:01.669Z,40.98
2022-11-06T12:29:05.701Z,41.05
2022-11-06T12:30:05.726Z,41.25
2022-11-06T12:31:58.805Z,42.02
2022-11-06T12:32:58.800Z,42.60
2022-11-06T12:34:51.840Z,41.03
2022-11-06T12:35:51.873Z,41.98
2022-11-06T12:37:45.079Z,42.36
2022-11-06T12:38:45.074Z,42.66
2022-11-06T12:40:38.160Z,42.29
2022-11-06T12:41:38.133Z,41.40
2022-11-06T12:43:31.305Z,42.85
2022-11-06T12:44:31.346Z,43.14
2022-11-06T12:46:35.408Z,43.38
2022-11-06T12:47:35.443Z,44.13
2022-11-06T12:49:28.515Z,46.52
2022-11-06T12:50:28.508Z,47.00
2022-11-06T12:52:21.685Z,47.72
2022-11-06T12:53:21.726Z,48.08
2022-11-06T12:55:14.757Z,49.02
2022-11-06T12:56:14.762Z,49.57
2022-11-06T12:58:07.795Z,52.24
2022-11-06T12:59:07.833Z,53.11
2022-11-06T13:01:01.078Z,53.68
2022-11-06T13:02:01.272Z,53.08
2022-11-06T13:04:05.299Z,53.66
2022-11-06T13:05:05.340Z,53.46
2022-11-06T13:06:58.379Z,53.82
2022-11-06T13:07:58.386Z,54.75
2022-11-06T13:09:51.589Z,55.58
2022-11-06T13:10:51.590Z,56.54
2022-11-06T13:12:44.800Z,57.21
2022-11-06T13:13:44.796Z,57.21
2022-11-06T13:15:38.057Z,57.31
2022-11-06T13:16:38.141Z,57.79
2022-11-06T13:18:31.220Z,57.89
2022-11-06T13:19:31.253Z,57.60
2022-11-06T13:21:24.425Z,57.89
2022-11-06T13:22:24.454Z,57.86
2022-11-06T13:24:28.538Z,58.15
2022-11-06T13:25:28.568Z,58.91
2022-11-06T13:27:21.782Z,58.15
2022-11-06T13:28:21.776Z,58.72
2022-11-06T13:30:14.973Z,59.01
2022-11-06T13:31:14.971Z,58.91
2022-11-06T13:33:19.324Z,57.57
2022-11-06T13:34:19.083Z,58.24
2022-11-06T13:36:23.149Z,58.31
2022-11-06T13:37:23.176Z,58.88
2022-11-06T13:39:16.351Z,59.27
2022-11-06T13:40:16.383Z,60.03
2022-11-06T13:42:09.551Z,60.61
2022-11-06T13:43:09.580Z,60.70
2022-11-06T13:45:02.749Z,60.41
2022-11-06T13:46:02.779Z,60.10
2022-11-06T13:48:06.844Z,60.86
2022-11-06T13:49:06.911Z,60.77
2022-11-06T13:51:10.988Z,61.44
2022-11-06T13:52:10.983Z,61.34
2022-11-06T13:54:04.193Z,61.18
2022-11-06T13:55:04.174Z,60.61
2022-11-06T13:56:57.167Z,59.13
2022-11-06T13:57:57.199Z,58.75
2022-11-06T13:59:50.416Z,56.98
2022-11-06T14:00:50.397Z,55.29
2022-11-06T14:02:54.523Z,53.94
2022-11-06T14:03:54.519Z,53.78
2022-11-06T14:05:58.638Z,53.78
2022-11-06T14:06:58.630Z,52.91
2022-11-06T14:08:51.804Z,53.56
2022-11-06T14:09:51.833Z,53.75
2022-11-06T14:11:55.900Z,54.78
2022-11-06T14:12:55.931Z,54.88
2022-11-06T14:15:00.039Z,54.61
2022-11-06T14:16:00.035Z,53.94
2022-11-06T14:17:00.079Z,54.13
2022-11-06T14:18:00.150Z,54.16
2022-11-06T14:19:00.141Z,53.49
2022-11-06T14:20:00.182Z,53.78
2022-11-06T14:21:00.209Z,52.55
2022-11-06T14:22:00.256Z,52.46
2022-11-06T14:23:00.280Z,52.08